sensor_id;sensor_type;location;lat;lon;timestamp;temperature;humidity
10245;DHT22;5167;52.164;10.530;2023-09-30T00:00:00;18.00;28.00
10245;DHT22;5167;52.164;10.530;2023-09-30T00:02:26;17.90;28.40
10245;DHT22;5167;52.164;10.530;2023-09-30T00:04:52;18.00;28.80
10245;DHT22;5167;52.164;10.530;2023-09-30T00:07:18;17.90;29.10
10245;DHT22;5167;52.164;10.530;2023-09-30T00:09:44;17.90;30.50
10245;DHT22;5167;52.164;10.530;2023-09-30T00:12:09;17.90;28.30
10245;DHT22;5167;52.164;10.530;2023-09-30T00:14:35;17.80;28.30
10245;DHT22;5167;52.164;10.530;2023-09-30T00:17:02;17.80;28.90
10245;DHT22;5167;52.164;10.530;2023-09-30T00:19:28;17.70;29.50
10245;DHT22;5167;52.164;10.530;2023-09-30T00:21:54;17.80;28.90
10245;DHT22;5167;52.164;10.530;2023-09-30T00:24:19;17.80;28.50
10245;DHT22;5167;52.164;10.530;2023-09-30T00:26:45;17.70;28.80
10245;DHT22;5167;52.164;10.530;2023-09-30T00:29:11;17.60;29.00
10245;DHT22;5167;52.164;10.530;2023-09-30T00:31:37;17.70;28.70
10245;DHT22;5167;52.164;10.530;2023-09-30T00:34:02;17.60;28.90
10245;DHT22;5167;52.164;10.530;2023-09-30T00:36:28;17.60;29.30
10245;DHT22;5167;52.164;10.530;2023-09-30T00:38:53;17.60;29.80
10245;DHT22;5167;52.164;10.530;2023-09-30T00:41:19;17.60;28.70
10245;DHT22;5167;52.164;10.530;2023-09-30T00:43:47;17.60;29.90
10245;DHT22;5167;52.164;10.530;2023-09-30T00:46:29;17.60;28.60
10245;DHT22;5167;52.164;10.530;2023-09-30T00:48:57;17.60;28.50
10245;DHT22;5167;52.164;10.530;2023-09-30T00:51:23;17.50;28.60
10245;DHT22;5167;52.164;10.530;2023-09-30T00:53:51;17.50;27.70
10245;DHT22;5167;52.164;10.530;2023-09-30T00:56:18;17.40;28.10
10245;DHT22;5167;52.164;10.530;2023-09-30T00:58:45;17.40;27.70
10245;DHT22;5167;52.164;10.530;2023-09-30T01:01:12;17.40;28.00
10245;DHT22;5167;52.164;10.530;2023-09-30T01:03:38;17.40;29.00
10245;DHT22;5167;52.164;10.530;2023-09-30T01:06:04;17.40;28.60
10245;DHT22;5167;52.164;10.530;2023-09-30T01:08:29;17.30;29.00
10245;DHT22;5167;52.164;10.530;2023-09-30T01:10:55;17.30;28.90
10245;DHT22;5167;52.164;10.530;2023-09-30T01:13:21;17.20;28.90
10245;DHT22;5167;52.164;10.530;2023-09-30T01:15:47;17.20;28.90
10245;DHT22;5167;52.164;10.530;2023-09-30T01:18:13;17.20;28.70
10245;DHT22;5167;52.164;10.530;2023-09-30T01:20:38;17.20;28.90
10245;DHT22;5167;52.164;10.530;2023-09-30T01:23:04;17.20;28.10
10245;DHT22;5167;52.164;10.530;2023-09-30T01:25:30;17.10;27.60
10245;DHT22;5167;52.164;10.530;2023-09-30T01:27:56;17.10;28.00
10245;DHT22;5167;52.164;10.530;2023-09-30T01:30:25;17.10;28.10
10245;DHT22;5167;52.164;10.530;2023-09-30T01:32:50;17.10;28.00
10245;DHT22;5167;52.164;10.530;2023-09-30T01:35:16;17.10;28.10
10245;DHT22;5167;52.164;10.530;2023-09-30T01:37:42;17.10;28.00
10245;DHT22;5167;52.164;10.530;2023-09-30T01:40:07;17.00;28.00
10245;DHT22;5167;52.164;10.530;2023-09-30T01:42:33;17.00;28.70
10245;DHT22;5167;52.164;10.530;2023-09-30T01:44:59;17.00;28.80
10245;DHT22;5167;52.164;10.530;2023-09-30T01:47:24;17.00;29.80
10245;DHT22;5167;52.164;10.530;2023-09-30T01:49:50;17.00;28.10
10245;DHT22;5167;52.164;10.530;2023-09-30T01:52:15;17.00;27.40
10245;DHT22;5167;52.164;10.530;2023-09-30T01:54:41;16.90;27.40
10245;DHT22;5167;52.164;10.530;2023-09-30T01:57:06;16.90;27.50
10245;DHT22;5167;52.164;10.530;2023-09-30T01:59:32;16.90;27.50
10245;DHT22;5167;52.164;10.530;2023-09-30T02:01:58;16.90;27.40
10245;DHT22;5167;52.164;10.530;2023-09-30T02:04:23;16.90;28.10
10245;DHT22;5167;52.164;10.530;2023-09-30T02:06:49;16.80;27.80
10245;DHT22;5167;52.164;10.530;2023-09-30T02:09:14;16.90;29.10
10245;DHT22;5167;52.164;10.530;2023-09-30T02:11:40;17.00;29.20
10245;DHT22;5167;52.164;10.530;2023-09-30T02:14:06;16.80;29.20
10245;DHT22;5167;52.164;10.530;2023-09-30T02:16:32;16.80;29.60
10245;DHT22;5167;52.164;10.530;2023-09-30T02:18:58;16.90;29.40
10245;DHT22;5167;52.164;10.530;2023-09-30T02:21:23;16.80;29.80
10245;DHT22;5167;52.164;10.530;2023-09-30T02:23:49;16.80;29.80
10245;DHT22;5167;52.164;10.530;2023-09-30T02:26:20;16.80;29.40
10245;DHT22;5167;52.164;10.530;2023-09-30T02:28:46;16.90;29.60
10245;DHT22;5167;52.164;10.530;2023-09-30T02:31:12;16.70;30.40
10245;DHT22;5167;52.164;10.530;2023-09-30T02:33:38;16.80;30.20
10245;DHT22;5167;52.164;10.530;2023-09-30T02:36:07;16.80;30.00
10245;DHT22;5167;52.164;10.530;2023-09-30T02:38:34;16.80;29.80
10245;DHT22;5167;52.164;10.530;2023-09-30T02:40:59;16.90;29.90
10245;DHT22;5167;52.164;10.530;2023-09-30T02:43:25;16.90;30.70
10245;DHT22;5167;52.164;10.530;2023-09-30T02:45:51;16.90;30.20
10245;DHT22;5167;52.164;10.530;2023-09-30T02:48:16;16.80;30.50
10245;DHT22;5167;52.164;10.530;2023-09-30T02:50:42;16.80;30.00
10245;DHT22;5167;52.164;10.530;2023-09-30T02:53:10;16.80;29.80
10245;DHT22;5167;52.164;10.530;2023-09-30T02:55:36;16.80;29.70
10245;DHT22;5167;52.164;10.530;2023-09-30T02:58:02;16.80;29.70
10245;DHT22;5167;52.164;10.530;2023-09-30T03:00:28;16.70;29.90
10245;DHT22;5167;52.164;10.530;2023-09-30T03:02:59;16.60;29.90
10245;DHT22;5167;52.164;10.530;2023-09-30T03:05:24;16.60;29.90
10245;DHT22;5167;52.164;10.530;2023-09-30T03:07:50;16.70;30.10
10245;DHT22;5167;52.164;10.530;2023-09-30T03:10:16;16.60;30.40
10245;DHT22;5167;52.164;10.530;2023-09-30T03:12:52;16.60;30.30
10245;DHT22;5167;52.164;10.530;2023-09-30T03:15:18;16.60;30.20
10245;DHT22;5167;52.164;10.530;2023-09-30T03:17:44;16.60;30.60
10245;DHT22;5167;52.164;10.530;2023-09-30T03:20:10;16.50;30.50
10245;DHT22;5167;52.164;10.530;2023-09-30T03:22:43;16.50;31.00
10245;DHT22;5167;52.164;10.530;2023-09-30T03:25:11;16.50;30.60
10245;DHT22;5167;52.164;10.530;2023-09-30T03:27:37;16.50;31.10
10245;DHT22;5167;52.164;10.530;2023-09-30T03:30:04;16.40;30.80
10245;DHT22;5167;52.164;10.530;2023-09-30T03:32:31;16.50;31.20
10245;DHT22;5167;52.164;10.530;2023-09-30T03:34:58;16.50;31.30
10245;DHT22;5167;52.164;10.530;2023-09-30T03:37:26;16.50;31.70
10245;DHT22;5167;52.164;10.530;2023-09-30T03:39:54;16.50;31.40
10245;DHT22;5167;52.164;10.530;2023-09-30T03:42:19;16.40;31.10
10245;DHT22;5167;52.164;10.530;2023-09-30T03:44:45;16.40;31.30
10245;DHT22;5167;52.164;10.530;2023-09-30T03:47:11;16.40;31.70
10245;DHT22;5167;52.164;10.530;2023-09-30T03:49:36;16.40;31.70
10245;DHT22;5167;52.164;10.530;2023-09-30T03:52:04;16.40;31.20
10245;DHT22;5167;52.164;10.530;2023-09-30T03:54:30;16.40;31.40
10245;DHT22;5167;52.164;10.530;2023-09-30T03:56:55;16.40;31.70
10245;DHT22;5167;52.164;10.530;2023-09-30T03:59:21;16.30;31.50
10245;DHT22;5167;52.164;10.530;2023-09-30T04:01:46;16.40;32.20
10245;DHT22;5167;52.164;10.530;2023-09-30T04:04:12;16.30;31.70
10245;DHT22;5167;52.164;10.530;2023-09-30T04:06:38;16.30;31.30
10245;DHT22;5167;52.164;10.530;2023-09-30T04:09:05;16.20;32.00
10245;DHT22;5167;52.164;10.530;2023-09-30T04:11:36;16.30;31.30
10245;DHT22;5167;52.164;10.530;2023-09-30T04:14:02;16.20;31.80
10245;DHT22;5167;52.164;10.530;2023-09-30T04:16:28;16.20;32.30
10245;DHT22;5167;52.164;10.530;2023-09-30T04:18:55;16.20;32.10
10245;DHT22;5167;52.164;10.530;2023-09-30T04:21:21;16.20;32.70
10245;DHT22;5167;52.164;10.530;2023-09-30T04:23:46;16.00;32.10
10245;DHT22;5167;52.164;10.530;2023-09-30T04:26:12;16.10;31.90
10245;DHT22;5167;52.164;10.530;2023-09-30T04:28:37;16.10;32.40
10245;DHT22;5167;52.164;10.530;2023-09-30T04:31:03;16.20;32.20
10245;DHT22;5167;52.164;10.530;2023-09-30T04:33:30;16.10;31.90
10245;DHT22;5167;52.164;10.530;2023-09-30T04:35:55;16.10;32.40
10245;DHT22;5167;52.164;10.530;2023-09-30T04:38:21;16.10;32.40
10245;DHT22;5167;52.164;10.530;2023-09-30T04:40:46;16.10;32.50
10245;DHT22;5167;52.164;10.530;2023-09-30T04:43:17;16.10;32.00
10245;DHT22;5167;52.164;10.530;2023-09-30T04:45:42;16.10;31.80
10245;DHT22;5167;52.164;10.530;2023-09-30T04:48:08;16.00;31.80
10245;DHT22;5167;52.164;10.530;2023-09-30T04:50:34;16.00;32.10
10245;DHT22;5167;52.164;10.530;2023-09-30T04:52:59;16.10;32.30
10245;DHT22;5167;52.164;10.530;2023-09-30T04:55:25;16.00;32.20
10245;DHT22;5167;52.164;10.530;2023-09-30T04:57:51;16.00;32.30
10245;DHT22;5167;52.164;10.530;2023-09-30T05:00:20;16.00;32.10
10245;DHT22;5167;52.164;10.530;2023-09-30T05:02:51;16.00;32.60
10245;DHT22;5167;52.164;10.530;2023-09-30T05:05:18;16.00;32.70
10245;DHT22;5167;52.164;10.530;2023-09-30T05:07:44;15.90;31.80
10245;DHT22;5167;52.164;10.530;2023-09-30T05:10:12;15.90;32.60
10245;DHT22;5167;52.164;10.530;2023-09-30T05:12:44;15.90;32.30
10245;DHT22;5167;52.164;10.530;2023-09-30T05:15:13;15.90;32.50
10245;DHT22;5167;52.164;10.530;2023-09-30T05:17:42;15.90;34.50
10245;DHT22;5167;52.164;10.530;2023-09-30T05:20:09;15.90;35.30
10245;DHT22;5167;52.164;10.530;2023-09-30T05:22:39;15.90;35.50
10245;DHT22;5167;52.164;10.530;2023-09-30T05:25:07;15.80;35.30
10245;DHT22;5167;52.164;10.530;2023-09-30T05:27:32;15.80;33.60
10245;DHT22;5167;52.164;10.530;2023-09-30T05:29:58;15.80;33.70
10245;DHT22;5167;52.164;10.530;2023-09-30T05:32:23;15.70;34.50
10245;DHT22;5167;52.164;10.530;2023-09-30T05:34:51;15.80;34.10
10245;DHT22;5167;52.164;10.530;2023-09-30T05:37:18;15.80;33.80
10245;DHT22;5167;52.164;10.530;2023-09-30T05:39:47;15.80;34.20
10245;DHT22;5167;52.164;10.530;2023-09-30T05:42:14;15.80;35.80
10245;DHT22;5167;52.164;10.530;2023-09-30T05:44:40;15.80;34.40
10245;DHT22;5167;52.164;10.530;2023-09-30T05:47:06;15.70;34.20
10245;DHT22;5167;52.164;10.530;2023-09-30T05:49:32;15.80;34.20
10245;DHT22;5167;52.164;10.530;2023-09-30T05:51:57;15.80;34.10
10245;DHT22;5167;52.164;10.530;2023-09-30T05:54:23;15.70;34.20
10245;DHT22;5167;52.164;10.530;2023-09-30T05:56:48;15.80;34.20
10245;DHT22;5167;52.164;10.530;2023-09-30T05:59:14;15.80;34.60
10245;DHT22;5167;52.164;10.530;2023-09-30T06:01:40;15.80;34.60
10245;DHT22;5167;52.164;10.530;2023-09-30T06:04:07;15.70;33.70
10245;DHT22;5167;52.164;10.530;2023-09-30T06:06:33;15.80;34.50
10245;DHT22;5167;52.164;10.530;2023-09-30T06:08:58;15.80;34.40
10245;DHT22;5167;52.164;10.530;2023-09-30T06:11:24;15.80;34.80
10245;DHT22;5167;52.164;10.530;2023-09-30T06:13:51;15.80;35.20
10245;DHT22;5167;52.164;10.530;2023-09-30T06:16:18;15.80;35.00
10245;DHT22;5167;52.164;10.530;2023-09-30T06:18:44;15.80;35.30
10245;DHT22;5167;52.164;10.530;2023-09-30T06:21:11;15.90;35.80
10245;DHT22;5167;52.164;10.530;2023-09-30T06:23:37;16.00;36.20
10245;DHT22;5167;52.164;10.530;2023-09-30T06:26:02;15.90;35.70
10245;DHT22;5167;52.164;10.530;2023-09-30T06:28:28;15.80;35.60
10245;DHT22;5167;52.164;10.530;2023-09-30T06:30:57;15.90;35.70
10245;DHT22;5167;52.164;10.530;2023-09-30T06:33:22;15.90;35.50
10245;DHT22;5167;52.164;10.530;2023-09-30T06:35:48;15.90;35.60
10245;DHT22;5167;52.164;10.530;2023-09-30T06:38:19;15.90;35.30
10245;DHT22;5167;52.164;10.530;2023-09-30T06:40:45;15.90;35.00
10245;DHT22;5167;52.164;10.530;2023-09-30T06:43:14;15.90;35.60
10245;DHT22;5167;52.164;10.530;2023-09-30T06:45:43;16.00;35.60
10245;DHT22;5167;52.164;10.530;2023-09-30T06:48:10;16.00;37.50
10245;DHT22;5167;52.164;10.530;2023-09-30T06:50:43;15.90;37.40
10245;DHT22;5167;52.164;10.530;2023-09-30T06:53:08;16.00;35.50
10245;DHT22;5167;52.164;10.530;2023-09-30T06:55:36;16.00;35.60
10245;DHT22;5167;52.164;10.530;2023-09-30T06:58:02;16.00;35.70
10245;DHT22;5167;52.164;10.530;2023-09-30T07:00:29;16.10;35.80
10245;DHT22;5167;52.164;10.530;2023-09-30T07:02:54;16.10;35.90
10245;DHT22;5167;52.164;10.530;2023-09-30T07:05:20;16.10;35.60
10245;DHT22;5167;52.164;10.530;2023-09-30T07:07:46;16.10;36.00
10245;DHT22;5167;52.164;10.530;2023-09-30T07:10:11;16.10;36.00
10245;DHT22;5167;52.164;10.530;2023-09-30T07:12:37;16.10;36.20
10245;DHT22;5167;52.164;10.530;2023-09-30T07:15:06;16.10;36.20
10245;DHT22;5167;52.164;10.530;2023-09-30T07:17:33;16.20;36.60
10245;DHT22;5167;52.164;10.530;2023-09-30T07:19:59;16.30;36.70
10245;DHT22;5167;52.164;10.530;2023-09-30T07:22:25;16.30;36.80
10245;DHT22;5167;52.164;10.530;2023-09-30T07:24:50;16.40;36.10
10245;DHT22;5167;52.164;10.530;2023-09-30T07:27:16;16.40;36.90
10245;DHT22;5167;52.164;10.530;2023-09-30T07:29:42;16.50;36.90
10245;DHT22;5167;52.164;10.530;2023-09-30T07:32:08;16.60;36.70
10245;DHT22;5167;52.164;10.530;2023-09-30T07:34:34;16.60;35.60
10245;DHT22;5167;52.164;10.530;2023-09-30T07:37:00;16.60;36.20
10245;DHT22;5167;52.164;10.530;2023-09-30T07:39:26;16.70;36.10
10245;DHT22;5167;52.164;10.530;2023-09-30T07:41:51;16.80;35.90
10245;DHT22;5167;52.164;10.530;2023-09-30T07:44:17;16.90;35.90
10245;DHT22;5167;52.164;10.530;2023-09-30T07:46:42;17.00;34.80
10245;DHT22;5167;52.164;10.530;2023-09-30T07:49:11;17.00;34.30
10245;DHT22;5167;52.164;10.530;2023-09-30T07:51:37;17.10;33.60
10245;DHT22;5167;52.164;10.530;2023-09-30T07:54:05;17.20;33.70
10245;DHT22;5167;52.164;10.530;2023-09-30T07:56:30;17.20;33.10
10245;DHT22;5167;52.164;10.530;2023-09-30T07:58:56;17.30;31.90
10245;DHT22;5167;52.164;10.530;2023-09-30T08:01:21;17.30;31.50
10245;DHT22;5167;52.164;10.530;2023-09-30T08:03:47;17.30;31.70
10245;DHT22;5167;52.164;10.530;2023-09-30T08:06:13;17.40;30.90
10245;DHT22;5167;52.164;10.530;2023-09-30T08:08:39;17.40;30.30
10245;DHT22;5167;52.164;10.530;2023-09-30T08:11:05;17.40;30.20
10245;DHT22;5167;52.164;10.530;2023-09-30T08:13:32;17.50;30.30
10245;DHT22;5167;52.164;10.530;2023-09-30T08:15:58;17.50;30.40
10245;DHT22;5167;52.164;10.530;2023-09-30T08:18:24;17.60;30.10
10245;DHT22;5167;52.164;10.530;2023-09-30T08:20:49;17.70;29.80
10245;DHT22;5167;52.164;10.530;2023-09-30T08:23:15;17.70;28.70
10245;DHT22;5167;52.164;10.530;2023-09-30T08:25:40;17.80;28.80
10245;DHT22;5167;52.164;10.530;2023-09-30T08:28:06;17.90;28.60
10245;DHT22;5167;52.164;10.530;2023-09-30T08:30:35;18.00;27.50
10245;DHT22;5167;52.164;10.530;2023-09-30T08:33:02;18.00;27.50
10245;DHT22;5167;52.164;10.530;2023-09-30T08:35:29;18.10;26.70
10245;DHT22;5167;52.164;10.530;2023-09-30T08:37:55;18.10;26.00
10245;DHT22;5167;52.164;10.530;2023-09-30T08:40:21;18.30;25.50
10245;DHT22;5167;52.164;10.530;2023-09-30T08:42:51;18.30;25.10
10245;DHT22;5167;52.164;10.530;2023-09-30T08:45:17;18.40;26.10
10245;DHT22;5167;52.164;10.530;2023-09-30T08:47:43;18.50;26.30
10245;DHT22;5167;52.164;10.530;2023-09-30T08:50:09;18.60;25.00
10245;DHT22;5167;52.164;10.530;2023-09-30T08:52:40;18.70;23.00
10245;DHT22;5167;52.164;10.530;2023-09-30T08:55:10;18.80;24.60
10245;DHT22;5167;52.164;10.530;2023-09-30T08:57:43;19.00;24.40
10245;DHT22;5167;52.164;10.530;2023-09-30T09:00:10;19.20;21.60
10245;DHT22;5167;52.164;10.530;2023-09-30T09:02:39;19.30;22.50
10245;DHT22;5167;52.164;10.530;2023-09-30T09:05:05;19.40;19.70
10245;DHT22;5167;52.164;10.530;2023-09-30T09:07:32;19.50;20.50
10245;DHT22;5167;52.164;10.530;2023-09-30T09:10:10;19.70;22.40
10245;DHT22;5167;52.164;10.530;2023-09-30T09:12:40;19.90;22.50
10245;DHT22;5167;52.164;10.530;2023-09-30T09:15:08;20.10;19.60
10245;DHT22;5167;52.164;10.530;2023-09-30T09:17:44;20.30;17.50
10245;DHT22;5167;52.164;10.530;2023-09-30T09:20:11;20.50;16.50
10245;DHT22;5167;52.164;10.530;2023-09-30T09:22:42;20.60;15.00
10245;DHT22;5167;52.164;10.530;2023-09-30T09:25:09;20.80;12.00
10245;DHT22;5167;52.164;10.530;2023-09-30T09:27:34;20.90;11.80
10245;DHT22;5167;52.164;10.530;2023-09-30T09:30:19;21.00;12.70
10245;DHT22;5167;52.164;10.530;2023-09-30T09:35:20;21.20;10.50
10245;DHT22;5167;52.164;10.530;2023-09-30T09:37:55;21.30;10.60
10245;DHT22;5167;52.164;10.530;2023-09-30T09:40:23;21.40;10.00
10245;DHT22;5167;52.164;10.530;2023-09-30T09:42:50;21.60;8.90
10245;DHT22;5167;52.164;10.530;2023-09-30T09:45:21;21.70;7.90
10245;DHT22;5167;52.164;10.530;2023-09-30T09:47:48;21.80;5.00
10245;DHT22;5167;52.164;10.530;2023-09-30T09:50:14;21.80;5.00
10245;DHT22;5167;52.164;10.530;2023-09-30T09:52:41;21.80;5.00
10245;DHT22;5167;52.164;10.530;2023-09-30T09:55:10;21.80;5.00
10245;DHT22;5167;52.164;10.530;2023-09-30T09:57:36;21.80;5.00
10245;DHT22;5167;52.164;10.530;2023-09-30T10:00:04;21.80;5.00
10245;DHT22;5167;52.164;10.530;2023-09-30T10:02:42;21.90;5.00
10245;DHT22;5167;52.164;10.530;2023-09-30T10:05:08;21.80;5.00
10245;DHT22;5167;52.164;10.530;2023-09-30T10:07:40;22.00;5.00
10245;DHT22;5167;52.164;10.530;2023-09-30T10:10:13;22.00;5.00
10245;DHT22;5167;52.164;10.530;2023-09-30T10:12:40;22.00;5.00
10245;DHT22;5167;52.164;10.530;2023-09-30T10:18:10;21.80;5.00
10245;DHT22;5167;52.164;10.530;2023-09-30T10:20:40;21.80;5.00
10245;DHT22;5167;52.164;10.530;2023-09-30T10:23:27;21.80;5.00
10245;DHT22;5167;52.164;10.530;2023-09-30T10:28:40;21.70;5.00
10245;DHT22;5167;52.164;10.530;2023-09-30T10:36:37;22.00;5.00
10245;DHT22;5167;52.164;10.530;2023-09-30T10:39:05;22.00;5.00
10245;DHT22;5167;52.164;10.530;2023-09-30T10:46:52;22.00;5.00
10245;DHT22;5167;52.164;10.530;2023-09-30T10:51:59;22.00;5.00
10245;DHT22;5167;52.164;10.530;2023-09-30T10:54:30;22.10;5.00
10245;DHT22;5167;52.164;10.530;2023-09-30T10:56:57;22.20;5.00
10245;DHT22;5167;52.164;10.530;2023-09-30T10:59:33;22.20;5.00
10245;DHT22;5167;52.164;10.530;2023-09-30T11:02:00;22.20;5.00
10245;DHT22;5167;52.164;10.530;2023-09-30T11:04:26;22.30;5.00
10245;DHT22;5167;52.164;10.530;2023-09-30T11:06:53;22.10;5.00
10245;DHT22;5167;52.164;10.530;2023-09-30T11:09:21;22.00;5.00
10245;DHT22;5167;52.164;10.530;2023-09-30T11:11:49;22.00;5.00
10245;DHT22;5167;52.164;10.530;2023-09-30T11:14:26;22.10;5.00
10245;DHT22;5167;52.164;10.530;2023-09-30T11:16:54;22.10;5.00
10245;DHT22;5167;52.164;10.530;2023-09-30T11:19:20;22.30;5.00
10245;DHT22;5167;52.164;10.530;2023-09-30T11:21:48;22.30;5.00
10245;DHT22;5167;52.164;10.530;2023-09-30T11:24:14;22.40;5.00
10245;DHT22;5167;52.164;10.530;2023-09-30T11:26:40;22.30;5.00
10245;DHT22;5167;52.164;10.530;2023-09-30T11:29:13;22.30;5.00
10245;DHT22;5167;52.164;10.530;2023-09-30T11:31:44;22.30;5.00
10245;DHT22;5167;52.164;10.530;2023-09-30T11:34:11;22.20;5.00
10245;DHT22;5167;52.164;10.530;2023-09-30T11:36:57;22.20;5.00
10245;DHT22;5167;52.164;10.530;2023-09-30T11:41:52;22.20;5.00
10245;DHT22;5167;52.164;10.530;2023-09-30T11:44:18;22.20;5.00
10245;DHT22;5167;52.164;10.530;2023-09-30T11:46:51;22.10;5.00
10245;DHT22;5167;52.164;10.530;2023-09-30T11:49:37;22.00;5.00
10245;DHT22;5167;52.164;10.530;2023-09-30T11:52:08;21.80;5.00
10245;DHT22;5167;52.164;10.530;2023-09-30T11:54:38;21.70;5.00
10245;DHT22;5167;52.164;10.530;2023-09-30T11:57:07;21.60;5.00
10245;DHT22;5167;52.164;10.530;2023-09-30T11:59:35;21.60;5.00
10245;DHT22;5167;52.164;10.530;2023-09-30T12:02:02;21.60;5.00
10245;DHT22;5167;52.164;10.530;2023-09-30T12:04:29;21.70;5.00
10245;DHT22;5167;52.164;10.530;2023-09-30T12:06:55;21.80;5.00
10245;DHT22;5167;52.164;10.530;2023-09-30T12:09:20;21.70;5.00
10245;DHT22;5167;52.164;10.530;2023-09-30T12:11:51;21.80;5.00
10245;DHT22;5167;52.164;10.530;2023-09-30T12:14:17;21.90;5.00
10245;DHT22;5167;52.164;10.530;2023-09-30T12:16:42;22.00;5.00
10245;DHT22;5167;52.164;10.530;2023-09-30T12:19:11;22.00;5.00
10245;DHT22;5167;52.164;10.530;2023-09-30T12:21:37;22.00;5.00
10245;DHT22;5167;52.164;10.530;2023-09-30T12:24:03;22.00;5.00
10245;DHT22;5167;52.164;10.530;2023-09-30T12:26:30;22.10;5.00
10245;DHT22;5167;52.164;10.530;2023-09-30T12:28:56;22.30;5.00
10245;DHT22;5167;52.164;10.530;2023-09-30T12:31:22;22.20;5.00
10245;DHT22;5167;52.164;10.530;2023-09-30T12:33:48;22.30;5.00
10245;DHT22;5167;52.164;10.530;2023-09-30T12:36:19;22.30;5.00
10245;DHT22;5167;52.164;10.530;2023-09-30T12:38:45;22.30;5.00
10245;DHT22;5167;52.164;10.530;2023-09-30T12:41:12;22.40;5.00
10245;DHT22;5167;52.164;10.530;2023-09-30T12:43:38;22.40;5.00
10245;DHT22;5167;52.164;10.530;2023-09-30T12:46:04;22.40;5.00
10245;DHT22;5167;52.164;10.530;2023-09-30T12:48:32;22.40;5.00
10245;DHT22;5167;52.164;10.530;2023-09-30T12:50:58;22.40;5.00
10245;DHT22;5167;52.164;10.530;2023-09-30T12:53:23;22.40;5.00
10245;DHT22;5167;52.164;10.530;2023-09-30T12:55:49;22.50;5.00
10245;DHT22;5167;52.164;10.530;2023-09-30T12:58:15;22.50;5.00
10245;DHT22;5167;52.164;10.530;2023-09-30T13:00:41;22.50;5.00
10245;DHT22;5167;52.164;10.530;2023-09-30T13:03:06;22.70;5.00
10245;DHT22;5167;52.164;10.530;2023-09-30T13:05:33;22.50;5.00
10245;DHT22;5167;52.164;10.530;2023-09-30T13:07:58;22.50;5.00
10245;DHT22;5167;52.164;10.530;2023-09-30T13:10:24;22.50;5.00
10245;DHT22;5167;52.164;10.530;2023-09-30T13:12:50;22.40;5.00
10245;DHT22;5167;52.164;10.530;2023-09-30T13:15:16;22.40;5.00
10245;DHT22;5167;52.164;10.530;2023-09-30T13:17:45;22.30;5.00
10245;DHT22;5167;52.164;10.530;2023-09-30T13:20:11;22.20;5.00
10245;DHT22;5167;52.164;10.530;2023-09-30T13:22:37;22.10;5.00
10245;DHT22;5167;52.164;10.530;2023-09-30T13:25:06;22.10;5.00
10245;DHT22;5167;52.164;10.530;2023-09-30T13:27:38;22.10;5.00
10245;DHT22;5167;52.164;10.530;2023-09-30T13:30:06;22.00;5.00
10245;DHT22;5167;52.164;10.530;2023-09-30T13:32:33;22.00;5.00
10245;DHT22;5167;52.164;10.530;2023-09-30T13:35:02;22.00;5.00
10245;DHT22;5167;52.164;10.530;2023-09-30T13:37:28;22.00;5.00
10245;DHT22;5167;52.164;10.530;2023-09-30T13:39:59;22.10;5.00
10245;DHT22;5167;52.164;10.530;2023-09-30T13:42:24;22.00;5.00
10245;DHT22;5167;52.164;10.530;2023-09-30T13:44:50;21.90;5.00
10245;DHT22;5167;52.164;10.530;2023-09-30T13:47:15;21.80;5.00
10245;DHT22;5167;52.164;10.530;2023-09-30T13:49:42;21.80;5.00
10245;DHT22;5167;52.164;10.530;2023-09-30T13:52:07;21.80;5.00
10245;DHT22;5167;52.164;10.530;2023-09-30T13:54:33;21.60;5.00
10245;DHT22;5167;52.164;10.530;2023-09-30T13:56:58;21.60;5.00
10245;DHT22;5167;52.164;10.530;2023-09-30T13:59:24;21.70;5.00
10245;DHT22;5167;52.164;10.530;2023-09-30T14:01:50;21.50;5.00
10245;DHT22;5167;52.164;10.530;2023-09-30T14:04:15;21.50;5.00
10245;DHT22;5167;52.164;10.530;2023-09-30T14:06:42;21.40;5.00
10245;DHT22;5167;52.164;10.530;2023-09-30T14:09:07;21.40;5.00
10245;DHT22;5167;52.164;10.530;2023-09-30T14:11:43;21.40;5.00
10245;DHT22;5167;52.164;10.530;2023-09-30T14:14:30;21.40;5.00
10245;DHT22;5167;52.164;10.530;2023-09-30T14:16:56;21.40;5.00
10245;DHT22;5167;52.164;10.530;2023-09-30T14:19:21;21.30;5.00
10245;DHT22;5167;52.164;10.530;2023-09-30T14:21:47;21.30;5.00
10245;DHT22;5167;52.164;10.530;2023-09-30T14:24:12;21.30;5.00
10245;DHT22;5167;52.164;10.530;2023-09-30T14:26:37;21.30;5.00
10245;DHT22;5167;52.164;10.530;2023-09-30T14:29:04;21.30;5.00
10245;DHT22;5167;52.164;10.530;2023-09-30T14:31:30;21.30;5.00
10245;DHT22;5167;52.164;10.530;2023-09-30T14:33:55;21.20;5.00
10245;DHT22;5167;52.164;10.530;2023-09-30T14:36:21;21.20;5.00
10245;DHT22;5167;52.164;10.530;2023-09-30T14:38:48;21.20;5.00
10245;DHT22;5167;52.164;10.530;2023-09-30T14:41:14;21.10;5.00
10245;DHT22;5167;52.164;10.530;2023-09-30T14:43:40;21.10;5.00
10245;DHT22;5167;52.164;10.530;2023-09-30T14:46:06;21.10;5.00
10245;DHT22;5167;52.164;10.530;2023-09-30T14:48:33;21.10;5.00
10245;DHT22;5167;52.164;10.530;2023-09-30T14:50:59;21.10;5.00
10245;DHT22;5167;52.164;10.530;2023-09-30T14:53:25;21.10;5.00
10245;DHT22;5167;52.164;10.530;2023-09-30T14:55:50;21.00;5.00
10245;DHT22;5167;52.164;10.530;2023-09-30T14:58:16;21.00;5.00
10245;DHT22;5167;52.164;10.530;2023-09-30T15:00:42;21.00;5.00
10245;DHT22;5167;52.164;10.530;2023-09-30T15:03:08;21.00;5.00
10245;DHT22;5167;52.164;10.530;2023-09-30T15:05:33;21.00;5.00
10245;DHT22;5167;52.164;10.530;2023-09-30T15:08:00;20.90;5.00
10245;DHT22;5167;52.164;10.530;2023-09-30T15:10:27;20.90;5.00
10245;DHT22;5167;52.164;10.530;2023-09-30T15:12:53;21.00;5.00
10245;DHT22;5167;52.164;10.530;2023-09-30T15:15:18;20.90;5.00
10245;DHT22;5167;52.164;10.530;2023-09-30T15:17:44;21.00;5.00
10245;DHT22;5167;52.164;10.530;2023-09-30T15:20:10;20.90;5.00
10245;DHT22;5167;52.164;10.530;2023-09-30T15:22:36;20.80;5.00
10245;DHT22;5167;52.164;10.530;2023-09-30T15:25:02;20.70;5.00
10245;DHT22;5167;52.164;10.530;2023-09-30T15:27:28;20.80;5.00
10245;DHT22;5167;52.164;10.530;2023-09-30T15:29:53;20.80;5.00
10245;DHT22;5167;52.164;10.530;2023-09-30T15:32:20;20.80;5.00
10245;DHT22;5167;52.164;10.530;2023-09-30T15:34:47;20.80;5.00
10245;DHT22;5167;52.164;10.530;2023-09-30T15:37:12;20.90;5.00
10245;DHT22;5167;52.164;10.530;2023-09-30T15:39:41;20.90;5.00
10245;DHT22;5167;52.164;10.530;2023-09-30T15:42:08;20.80;5.00
10245;DHT22;5167;52.164;10.530;2023-09-30T15:44:34;20.80;5.00
10245;DHT22;5167;52.164;10.530;2023-09-30T15:47:00;20.80;5.00
10245;DHT22;5167;52.164;10.530;2023-09-30T15:49:26;20.90;5.00
10245;DHT22;5167;52.164;10.530;2023-09-30T15:51:51;20.60;5.00
10245;DHT22;5167;52.164;10.530;2023-09-30T15:54:18;20.90;5.00
10245;DHT22;5167;52.164;10.530;2023-09-30T15:56:44;20.90;5.00
10245;DHT22;5167;52.164;10.530;2023-09-30T15:59:09;20.80;5.00